Time;durP1;ratioP1;P1;durP2;ratioP2;P2;SDS_P1;SDS_P2;PMS_P1;PMS_P2;Temp;Humidity;BMP_temperature;BMP_pressure;BME280_temperature;BME280_humidity;BME280_pressure;Samples;Min_cycle;Max_cycle;Signal;HPM_P1;HPM_P2
2021/11/29 00:00:14;;;;;;;18.17;9.23;;;1.10;99.90;;;;;;5067734;23;20828;-80
2021/11/29 00:02:18;;;;;;;16.77;8.30;;;1.10;99.90;;;;;;5067246;23;20406;-80
2021/11/29 00:04:20;;;;;;;16.43;8.77;;;1.10;99.90;;;;;;5068045;23;20495;-80
2021/11/29 00:06:23;;;;;;;18.97;9.00;;;1.10;99.90;;;;;;5069150;23;20441;-80
2021/11/29 00:08:26;;;;;;;16.37;8.50;;;1.10;99.90;;;;;;5069390;23;20819;-80
2021/11/29 00:10:28;;;;;;;18.70;9.37;;;1.10;99.90;;;;;;5068534;23;20521;-80
2021/11/29 00:12:30;;;;;;;20.07;9.07;;;1.10;99.90;;;;;;5068887;23;20442;-80
2021/11/29 00:14:32;;;;;;;16.13;9.10;;;1.10;99.90;;;;;;5068435;23;20497;-79
2021/11/29 00:16:34;;;;;;;18.57;9.17;;;1.10;99.90;;;;;;5067689;23;20497;-79
2021/11/29 00:18:37;;;;;;;17.17;9.03;;;1.10;99.90;;;;;;5068293;23;20455;-79
2021/11/29 00:20:42;;;;;;;18.00;9.20;;;1.10;99.90;;;;;;5068900;23;20448;-79
2021/11/29 00:22:46;;;;;;;18.30;8.80;;;1.10;99.90;;;;;;5068125;23;20438;-80
2021/11/29 00:24:48;;;;;;;19.90;9.03;;;1.30;99.90;;;;;;5068733;23;20770;-80
2021/11/29 00:26:50;;;;;;;17.73;9.30;;;1.10;99.90;;;;;;5067548;23;20464;-80
2021/11/29 00:28:52;;;;;;;18.13;9.07;;;1.10;99.90;;;;;;5068273;23;20457;-80
2021/11/29 00:30:53;;;;;;;18.03;9.03;;;1.10;99.90;;;;;;5068165;23;20922;-80
2021/11/29 00:32:56;;;;;;;17.63;8.70;;;1.00;99.90;;;;;;5067758;23;20505;-79
2021/11/29 00:34:59;;;;;;;18.27;9.77;;;1.10;99.90;;;;;;5068674;23;20449;-80
2021/11/29 00:37:01;;;;;;;17.67;8.77;;;1.10;99.90;;;;;;5068157;23;20401;-80
2021/11/29 00:39:04;;;;;;;17.73;9.33;;;1.10;99.90;;;;;;5067825;23;20419;-80
2021/11/29 00:41:06;;;;;;;17.27;8.43;;;1.10;99.90;;;;;;5068269;23;21198;-79
2021/11/29 00:43:09;;;;;;;16.87;8.40;;;1.10;99.90;;;;;;5068339;23;20445;-79
2021/11/29 00:45:11;;;;;;;14.23;8.13;;;1.10;99.90;;;;;;5066627;23;20495;-80
2021/11/29 00:47:14;;;;;;;18.43;9.17;;;1.10;99.90;;;;;;5069573;23;20439;-79
2021/11/29 00:49:15;;;;;;;16.43;8.83;;;1.10;99.90;;;;;;5068152;23;20446;-79
2021/11/29 00:51:17;;;;;;;16.93;8.27;;;1.10;99.90;;;;;;5069167;23;20431;-80
2021/11/29 00:53:19;;;;;;;15.97;8.50;;;1.20;99.90;;;;;;5068720;23;20802;-80
2021/11/29 00:55:23;;;;;;;15.13;7.90;;;1.10;99.90;;;;;;5068351;23;20424;-79
2021/11/29 00:57:25;;;;;;;14.30;7.67;;;1.20;99.90;;;;;;5069090;23;20982;-79
2021/11/29 00:59:27;;;;;;;14.93;8.20;;;1.20;99.90;;;;;;5069081;23;20849;-79
2021/11/29 01:01:29;;;;;;;16.77;8.03;;;1.20;99.90;;;;;;5069232;23;20807;-80
2021/11/29 01:03:31;;;;;;;17.20;8.57;;;1.20;99.90;;;;;;5068666;23;20462;-80
2021/11/29 01:05:33;;;;;;;16.87;8.37;;;1.20;99.90;;;;;;5068918;23;20478;-80
2021/11/29 01:07:35;;;;;;;16.53;8.17;;;1.20;99.90;;;;;;5067739;23;20506;-80
2021/11/29 01:09:38;;;;;;;17.67;8.57;;;1.20;99.90;;;;;;5068806;23;20455;-79
2021/11/29 01:11:42;;;;;;;17.47;8.50;;;1.20;99.90;;;;;;5069073;23;20429;-80
2021/11/29 01:13:44;;;;;;;17.03;9.37;;;1.20;99.90;;;;;;5067994;23;20534;-80
2021/11/29 01:15:46;;;;;;;17.97;9.20;;;1.20;99.90;;;;;;5069522;23;20427;-80
2021/11/29 01:17:48;;;;;;;18.00;9.07;;;1.20;99.90;;;;;;5068729;23;20489;-80
2021/11/29 01:19:50;;;;;;;19.07;9.43;;;1.20;99.90;;;;;;5069843;23;20517;-80
2021/11/29 01:21:52;;;;;;;18.87;9.37;;;1.20;99.90;;;;;;5068859;23;20857;-79
2021/11/29 01:23:54;;;;;;;19.43;9.43;;;1.20;99.90;;;;;;5068716;23;20505;-80
2021/11/29 01:25:56;;;;;;;16.30;8.40;;;1.20;99.90;;;;;;5069483;23;20966;-79
2021/11/29 01:27:59;;;;;;;20.57;9.77;;;1.20;99.90;;;;;;5069789;23;20505;-80
2021/11/29 01:30:01;;;;;;;19.27;9.63;;;1.20;99.90;;;;;;5069573;23;20521;-80
2021/11/29 01:32:04;;;;;;;19.63;9.83;;;1.20;99.90;;;;;;5070386;23;20476;-79
2021/11/29 01:34:06;;;;;;;18.60;9.43;;;1.20;99.90;;;;;;5069829;23;20467;-80
2021/11/29 01:36:08;;;;;;;19.27;9.60;;;1.20;99.90;;;;;;5070323;23;20687;-80
2021/11/29 01:38:10;;;;;;;19.70;9.83;;;1.10;99.90;;;;;;5074051;23;20470;-80
2021/11/29 01:40:13;;;;;;;17.17;9.40;;;1.10;99.90;;;;;;5077877;23;20451;-80
2021/11/29 01:42:15;;;;;;;20.33;9.33;;;1.10;99.90;;;;;;5075959;23;20415;-80
2021/11/29 01:44:19;;;;;;;19.33;9.33;;;1.10;99.90;;;;;;5072168;23;20407;-80
2021/11/29 01:46:21;;;;;;;17.13;9.07;;;1.10;99.90;;;;;;5072776;23;20443;-80
2021/11/29 01:48:25;;;;;;;18.97;9.50;;;1.10;99.90;;;;;;5071050;23;20511;-80
2021/11/29 01:50:27;;;;;;;17.97;8.90;;;1.10;99.90;;;;;;5067500;23;20471;-80
2021/11/29 01:52:29;;;;;;;16.77;8.70;;;1.10;99.90;;;;;;5068386;23;20437;-80
2021/11/29 01:54:31;;;;;;;16.47;8.40;;;1.10;99.90;;;;;;5068032;23;20449;-80
2021/11/29 01:56:33;;;;;;;18.27;9.43;;;1.10;99.90;;;;;;5068380;23;20408;-80
2021/11/29 01:58:38;;;;;;;17.03;8.87;;;1.10;99.90;;;;;;5067906;23;20438;-80
2021/11/29 02:00:45;;;;;;;14.80;8.10;;;1.10;99.90;;;;;;5067521;23;20450;-80
2021/11/29 02:02:50;;;;;;;15.30;8.17;;;1.10;99.90;;;;;;5067746;23;20477;-80
2021/11/29 02:04:58;;;;;;;16.40;7.97;;;1.20;99.90;;;;;;5067751;23;20439;-80
2021/11/29 02:07:00;;;;;;;14.90;7.93;;;1.10;99.90;;;;;;5069981;23;20406;-79
2021/11/29 02:09:04;;;;;;;16.20;8.87;;;1.10;99.90;;;;;;5069023;23;20479;-79
2021/11/29 02:11:07;;;;;;;16.30;8.03;;;1.10;99.90;;;;;;5067897;23;20545;-80
2021/11/29 02:13:09;;;;;;;16.10;8.40;;;1.10;99.90;;;;;;5068830;23;20441;-80
2021/11/29 02:15:12;;;;;;;17.30;8.73;;;1.20;99.90;;;;;;5068856;23;20438;-80
2021/11/29 02:17:16;;;;;;;15.97;7.90;;;1.10;99.90;;;;;;5068946;23;20845;-80
2021/11/29 02:19:19;;;;;;;14.70;8.00;;;1.10;99.90;;;;;;5069380;23;20442;-77
2021/11/29 02:21:23;;;;;;;15.93;7.97;;;1.10;99.90;;;;;;5092906;23;20492;-78
2021/11/29 02:23:25;;;;;;;16.00;7.77;;;1.10;99.90;;;;;;5093660;23;20478;-77
2021/11/29 02:25:27;;;;;;;16.90;8.10;;;1.00;99.90;;;;;;5093608;23;20517;-76
2021/11/29 02:27:29;;;;;;;15.47;8.20;;;1.10;99.90;;;;;;5093690;23;20458;-80
2021/11/29 02:29:31;;;;;;;15.63;8.10;;;1.10;99.90;;;;;;5093289;23;20545;-79
2021/11/29 02:31:36;;;;;;;14.67;7.80;;;1.00;99.90;;;;;;5092863;23;20811;-77
2021/11/29 02:33:38;;;;;;;16.17;7.73;;;1.10;99.90;;;;;;5092445;23;20501;-77
2021/11/29 02:35:40;;;;;;;16.50;8.47;;;1.00;99.90;;;;;;5093206;23;20870;-75
2021/11/29 02:37:44;;;;;;;14.60;8.23;;;1.10;99.90;;;;;;5092238;23;20422;-76
2021/11/29 02:39:46;;;;;;;15.47;8.17;;;1.10;99.90;;;;;;5092314;23;20526;-77
2021/11/29 02:41:49;;;;;;;15.10;7.83;;;1.10;99.90;;;;;;5093167;23;20812;-77
2021/11/29 02:43:51;;;;;;;14.10;7.73;;;1.10;99.90;;;;;;5093175;23;20434;-77
2021/11/29 02:45:54;;;;;;;15.17;8.07;;;1.10;99.90;;;;;;5091981;23;20509;-79
2021/11/29 02:47:56;;;;;;;14.63;7.93;;;1.10;99.90;;;;;;5094134;23;20438;-78
2021/11/29 02:49:58;;;;;;;14.83;8.23;;;1.10;99.90;;;;;;5092881;23;20442;-74
2021/11/29 02:52:02;;;;;;;18.20;8.37;;;1.10;99.90;;;;;;5093477;23;20794;-76
2021/11/29 02:54:08;;;;;;;15.33;8.33;;;1.10;99.90;;;;;;5091730;23;20948;-78
2021/11/29 02:56:10;;;;;;;16.30;8.00;;;1.10;99.90;;;;;;5093123;23;20433;-76
2021/11/29 02:58:12;;;;;;;14.20;7.87;;;1.10;99.90;;;;;;5092060;23;20512;-76
2021/11/29 03:00:14;;;;;;;17.83;8.43;;;1.10;99.90;;;;;;5091517;23;21008;-75
2021/11/29 03:02:18;;;;;;;16.17;8.67;;;1.10;99.90;;;;;;5091857;23;20457;-77
2021/11/29 03:04:21;;;;;;;16.93;8.60;;;1.10;99.90;;;;;;5092146;23;20925;-77
2021/11/29 03:06:23;;;;;;;17.17;8.70;;;1.10;99.90;;;;;;5092658;23;20454;-75
2021/11/29 03:08:25;;;;;;;17.80;9.30;;;1.10;99.90;;;;;;5092719;23;20899;-77
2021/11/29 03:10:29;;;;;;;17.87;8.73;;;1.10;99.90;;;;;;5092070;23;20968;-75
2021/11/29 03:12:31;;;;;;;16.57;8.73;;;1.10;99.90;;;;;;5092953;23;20421;-77
2021/11/29 03:14:33;;;;;;;18.83;9.50;;;1.10;99.90;;;;;;5092108;23;20505;-76
2021/11/29 03:16:35;;;;;;;16.53;9.07;;;1.10;99.90;;;;;;5093458;23;20413;-73
2021/11/29 03:18:43;;;;;;;13.80;8.07;;;1.20;99.90;;;;;;5092785;23;20461;-76
2021/11/29 03:20:45;;;;;;;17.63;8.50;;;1.10;99.90;;;;;;5109796;23;20476;-75
2021/11/29 03:22:47;;;;;;;16.57;8.27;;;1.20;99.90;;;;;;5117909;23;20524;-76
2021/11/29 03:24:49;;;;;;;15.17;8.33;;;1.20;99.90;;;;;;5117029;23;20452;-73
2021/11/29 03:26:52;;;;;;;15.10;8.37;;;1.20;99.90;;;;;;5116048;23;20762;-75
2021/11/29 03:28:57;;;;;;;17.60;8.60;;;1.20;99.90;;;;;;5116481;23;20437;-74
2021/11/29 03:30:59;;;;;;;16.30;8.37;;;1.20;99.90;;;;;;5116281;23;20471;-74
2021/11/29 03:33:01;;;;;;;16.50;8.63;;;1.20;99.90;;;;;;5117949;23;20449;-73
2021/11/29 03:35:03;;;;;;;16.77;8.80;;;1.20;99.90;;;;;;5117199;23;20414;-74
2021/11/29 03:37:05;;;;;;;14.90;8.30;;;1.20;99.90;;;;;;5115950;23;20827;-75
2021/11/29 03:39:11;;;;;;;16.97;8.83;;;1.20;99.90;;;;;;5116708;23;20425;-81
2021/11/29 03:41:13;;;;;;;17.23;8.63;;;1.20;99.90;;;;;;5116904;23;20405;-76
2021/11/29 03:43:16;;;;;;;17.73;9.27;;;1.20;99.90;;;;;;5117106;23;20402;-76
2021/11/29 03:45:18;;;;;;;18.43;9.57;;;1.30;99.90;;;;;;5116162;23;20496;-75
2021/11/29 03:47:20;;;;;;;19.60;9.30;;;1.20;99.90;;;;;;5116922;23;20393;-75
2021/11/29 03:49:23;;;;;;;17.77;9.33;;;1.20;99.90;;;;;;5116372;23;20501;-75
2021/11/29 03:51:25;;;;;;;16.23;8.80;;;1.20;99.90;;;;;;5116729;23;20448;-75
2021/11/29 03:53:27;;;;;;;16.40;8.57;;;1.20;99.90;;;;;;5117208;23;20455;-75
2021/11/29 03:55:29;;;;;;;19.40;9.70;;;1.20;99.90;;;;;;5115817;23;20436;-75
2021/11/29 03:57:31;;;;;;;20.00;10.03;;;1.20;99.90;;;;;;5117384;23;20419;-75
2021/11/29 03:59:37;;;;;;;21.03;10.03;;;1.20;99.90;;;;;;5116833;23;20441;-75
2021/11/29 04:01:39;;;;;;;18.57;9.47;;;1.20;99.90;;;;;;5115418;23;20418;-75
2021/11/29 04:03:41;;;;;;;21.20;10.13;;;1.30;99.90;;;;;;5116220;23;20443;-75
2021/11/29 04:05:43;;;;;;;19.10;10.13;;;1.20;99.90;;;;;;5116341;23;20449;-75
2021/11/29 04:07:45;;;;;;;21.87;10.40;;;1.20;99.90;;;;;;5116584;23;21071;-75
2021/11/29 04:09:47;;;;;;;20.07;10.13;;;1.20;99.90;;;;;;5116654;23;20475;-75
2021/11/29 04:11:49;;;;;;;19.07;10.20;;;1.30;99.90;;;;;;5116941;23;20449;-75
2021/11/29 04:13:51;;;;;;;24.60;10.70;;;1.20;99.90;;;;;;5117609;23;20523;-75
2021/11/29 04:15:54;;;;;;;21.97;10.93;;;1.20;99.90;;;;;;5116924;23;20459;-75
2021/11/29 04:17:56;;;;;;;21.47;10.93;;;1.20;99.90;;;;;;5117665;23;20448;-75
2021/11/29 04:19:58;;;;;;;20.93;10.67;;;1.20;99.90;;;;;;5116177;23;20840;-75
2021/11/29 04:22:00;;;;;;;24.47;10.80;;;1.30;99.90;;;;;;5116575;23;20433;-75
2021/11/29 04:24:02;;;;;;;21.80;11.07;;;1.30;99.90;;;;;;5115709;23;20974;-75
2021/11/29 04:26:04;;;;;;;24.47;11.63;;;1.30;99.90;;;;;;5116900;23;20453;-77
2021/11/29 04:28:06;;;;;;;23.27;10.90;;;1.30;99.90;;;;;;5116842;23;20420;-75
2021/11/29 04:30:12;;;;;;;23.53;11.47;;;1.30;99.90;;;;;;5116047;23;20962;-75
2021/11/29 04:32:15;;;;;;;22.03;11.07;;;1.30;99.90;;;;;;5117462;23;20884;-79
2021/11/29 04:34:17;;;;;;;25.30;11.83;;;1.30;99.90;;;;;;5116306;23;20456;-73
2021/11/29 04:36:19;;;;;;;22.53;11.13;;;1.30;99.90;;;;;;5116309;23;20445;-74
2021/11/29 04:38:21;;;;;;;23.87;11.47;;;1.40;99.90;;;;;;5117176;23;20401;-73
2021/11/29 04:40:23;;;;;;;22.67;11.43;;;1.30;99.90;;;;;;5116625;23;20445;-73
2021/11/29 04:42:25;;;;;;;24.50;12.00;;;1.30;99.90;;;;;;5116888;23;20908;-74
2021/11/29 04:44:28;;;;;;;25.93;12.27;;;1.40;99.90;;;;;;5117807;23;20738;-73
2021/11/29 04:46:30;;;;;;;26.57;12.67;;;1.40;99.90;;;;;;5115481;23;20777;-75
2021/11/29 04:48:33;;;;;;;25.67;11.97;;;1.30;99.90;;;;;;5116439;23;20775;-76
2021/11/29 04:50:36;;;;;;;24.10;12.20;;;1.40;99.90;;;;;;5115921;23;20450;-72
2021/11/29 04:52:38;;;;;;;27.30;12.97;;;1.40;99.90;;;;;;5117041;23;20808;-76
2021/11/29 04:54:41;;;;;;;23.73;11.03;;;1.40;99.90;;;;;;5115888;23;20630;-80
2021/11/29 04:56:43;;;;;;;24.20;11.77;;;1.40;99.90;;;;;;5117098;23;20420;-75
2021/11/29 04:58:45;;;;;;;22.83;11.23;;;1.40;99.90;;;;;;5116552;23;20437;-73
2021/11/29 05:00:51;;;;;;;27.97;12.07;;;1.40;99.90;;;;;;5116234;23;20464;-77
2021/11/29 05:02:53;;;;;;;26.97;11.97;;;1.40;99.90;;;;;;5115517;23;20406;-75
2021/11/29 05:04:56;;;;;;;26.10;12.37;;;1.40;99.90;;;;;;5116507;23;20475;-73
2021/11/29 05:06:58;;;;;;;25.60;11.97;;;1.40;99.90;;;;;;5117812;23;20549;-73
2021/11/29 05:09:01;;;;;;;27.10;12.50;;;1.40;99.90;;;;;;5115175;23;20443;-76
2021/11/29 05:11:04;;;;;;;30.80;13.27;;;1.40;99.90;;;;;;5115952;23;20472;-81
2021/11/29 05:13:06;;;;;;;27.37;13.77;;;1.50;99.90;;;;;;5116880;23;20421;-73
2021/11/29 05:15:09;;;;;;;25.37;12.30;;;1.50;99.90;;;;;;5115619;23;20877;-74
2021/11/29 05:17:11;;;;;;;30.50;13.93;;;1.50;99.90;;;;;;5117307;23;20432;-73
2021/11/29 05:19:13;;;;;;;29.90;13.43;;;1.50;99.90;;;;;;5116541;23;20436;-73
2021/11/29 05:21:19;;;;;;;30.20;14.60;;;1.50;99.90;;;;;;5115765;23;20400;-74
2021/11/29 05:23:21;;;;;;;27.63;13.73;;;1.50;99.90;;;;;;5117600;23;20382;-76
2021/11/29 05:25:24;;;;;;;31.30;14.10;;;1.50;99.90;;;;;;5117308;23;20807;-77
2021/11/29 05:27:25;;;;;;;28.03;12.83;;;1.50;99.90;;;;;;5116673;23;20941;-78
2021/11/29 05:29:28;;;;;;;31.67;14.37;;;1.50;99.90;;;;;;5116394;23;20503;-75
2021/11/29 05:31:30;;;;;;;30.13;13.93;;;1.50;99.90;;;;;;5116852;23;20449;-75
2021/11/29 05:33:32;;;;;;;34.07;14.93;;;1.50;99.90;;;;;;5116578;23;20457;-78
2021/11/29 05:35:34;;;;;;;33.30;14.60;;;1.50;99.90;;;;;;5116768;23;20421;-76
2021/11/29 05:37:37;;;;;;;36.43;15.37;;;1.60;99.90;;;;;;5115958;23;20499;-78
2021/11/29 05:39:39;;;;;;;32.63;15.63;;;1.50;99.90;;;;;;5116385;23;20480;-79
2021/11/29 05:41:42;;;;;;;37.40;15.70;;;1.60;99.90;;;;;;5118272;23;20901;-78
2021/11/29 05:43:44;;;;;;;33.53;15.77;;;1.50;99.90;;;;;;5117323;23;20505;-79
2021/11/29 05:45:46;;;;;;;35.13;15.80;;;1.60;99.90;;;;;;5114805;23;20788;-76
2021/11/29 05:47:48;;;;;;;34.00;15.07;;;1.70;99.90;;;;;;5118639;23;20417;-77
2021/11/29 05:49:51;;;;;;;32.23;14.73;;;1.60;99.90;;;;;;5117756;23;20467;-77
2021/11/29 05:51:55;;;;;;;34.27;16.63;;;1.60;99.90;;;;;;5118306;23;20409;-75
2021/11/29 05:53:58;;;;;;;32.83;14.47;;;1.60;99.90;;;;;;5118342;23;20424;-77
2021/11/29 05:56:04;;;;;;;34.33;15.07;;;1.60;99.90;;;;;;5117113;23;20521;-83
2021/11/29 05:58:06;;;;;;;34.03;16.30;;;1.70;99.90;;;;;;5117326;23;20630;-75
2021/11/29 06:00:10;;;;;;;30.97;14.30;;;1.60;99.90;;;;;;5117637;23;20420;-75
2021/11/29 06:02:12;;;;;;;35.17;15.83;;;1.60;99.90;;;;;;5118035;23;20457;-77
2021/11/29 06:04:14;;;;;;;33.53;14.93;;;1.60;99.90;;;;;;5116332;23;20618;-76
2021/11/29 06:06:16;;;;;;;35.93;15.63;;;1.60;99.90;;;;;;5117849;23;20536;-75
2021/11/29 06:08:18;;;;;;;34.30;14.90;;;1.60;99.90;;;;;;5116993;23;20504;-75
2021/11/29 06:10:22;;;;;;;34.20;15.57;;;1.60;99.90;;;;;;5117531;23;20823;-75
2021/11/29 06:12:24;;;;;;;36.70;15.80;;;1.60;99.90;;;;;;5118256;23;20914;-75
2021/11/29 06:14:26;;;;;;;32.03;14.77;;;1.60;99.90;;;;;;5117596;23;20493;-77
2021/11/29 06:16:28;;;;;;;33.57;14.10;;;1.60;99.90;;;;;;5117832;23;20401;-75
2021/11/29 06:18:30;;;;;;;32.20;14.63;;;1.60;99.90;;;;;;5118305;23;20425;-75
2021/11/29 06:20:32;;;;;;;33.43;15.20;;;1.60;99.90;;;;;;5116817;23;20487;-75
2021/11/29 06:22:35;;;;;;;29.93;14.27;;;1.60;99.90;;;;;;5117684;23;20599;-81
2021/11/29 06:24:37;;;;;;;35.13;15.93;;;1.60;99.90;;;;;;5116962;23;20444;-75
2021/11/29 06:26:40;;;;;;;32.33;14.30;;;1.60;99.90;;;;;;5117576;23;20445;-75
2021/11/29 06:28:42;;;;;;;32.47;14.17;;;1.60;99.90;;;;;;5116828;23;20401;-76
2021/11/29 06:30:44;;;;;;;31.63;14.20;;;1.60;99.90;;;;;;5116295;23;20468;-75
2021/11/29 06:32:46;;;;;;;31.47;14.70;;;1.60;99.90;;;;;;5117616;23;20424;-76
2021/11/29 06:34:48;;;;;;;34.40;14.73;;;1.60;99.90;;;;;;5117438;23;20445;-77
2021/11/29 06:36:54;;;;;;;34.20;14.27;;;1.60;99.90;;;;;;5117226;23;20486;-79
2021/11/29 06:38:57;;;;;;;34.53;15.97;;;1.60;99.90;;;;;;5116631;23;20473;-81
2021/11/29 06:40:59;;;;;;;32.97;14.63;;;1.60;99.90;;;;;;5117842;23;20428;-78
2021/11/29 06:43:03;;;;;;;31.70;14.80;;;1.60;99.90;;;;;;5117277;23;20408;-77
2021/11/29 06:45:06;;;;;;;34.67;14.60;;;1.60;99.90;;;;;;5115671;23;20429;-75
2021/11/29 06:47:09;;;;;;;37.70;15.33;;;1.60;99.90;;;;;;5118492;23;20438;-75
2021/11/29 06:49:11;;;;;;;33.70;14.73;;;1.60;99.90;;;;;;5117755;23;20508;-75
2021/11/29 06:51:13;;;;;;;32.30;14.87;;;1.60;99.90;;;;;;5117639;23;20920;-75
2021/11/29 06:53:16;;;;;;;34.03;16.10;;;1.60;99.90;;;;;;5117244;23;20410;-77
2021/11/29 06:55:21;;;;;;;32.60;14.00;;;1.60;99.90;;;;;;5117471;23;20412;-75
2021/11/29 06:57:23;;;;;;;34.13;14.97;;;1.60;99.90;;;;;;5117435;23;20426;-75
2021/11/29 06:59:26;;;;;;;30.50;14.00;;;1.60;99.90;;;;;;5116894;23;20465;-80
2021/11/29 07:01:28;;;;;;;33.17;15.00;;;1.60;99.90;;;;;;5116946;23;20939;-74
2021/11/29 07:03:31;;;;;;;30.70;13.83;;;1.60;99.90;;;;;;5117506;23;20809;-77
2021/11/29 07:05:33;;;;;;;30.73;13.70;;;1.60;99.90;;;;;;5116422;23;20413;-79
2021/11/29 07:07:36;;;;;;;29.43;13.93;;;1.60;99.90;;;;;;5110492;23;20448;-77
2021/11/29 07:09:38;;;;;;;30.00;13.67;;;1.70;99.90;;;;;;5111509;23;20551;-76
2021/11/29 07:11:40;;;;;;;31.63;14.73;;;1.60;99.90;;;;;;5112949;23;20447;-76
2021/11/29 07:13:44;;;;;;;31.33;13.53;;;1.70;99.90;;;;;;5113442;23;20437;-76
2021/11/29 07:15:48;;;;;;;31.87;14.03;;;1.70;99.90;;;;;;5113229;23;20426;-74
2021/11/29 07:17:50;;;;;;;33.80;14.17;;;1.70;99.90;;;;;;5114094;23;20448;-78
2021/11/29 07:19:53;;;;;;;28.03;13.53;;;1.70;99.90;;;;;;5110270;23;20441;-81
2021/11/29 07:21:57;;;;;;;31.70;13.73;;;1.70;99.90;;;;;;5113069;23;20437;-77
2021/11/29 07:23:59;;;;;;;32.10;14.60;;;1.70;99.90;;;;;;5113908;23;20420;-77
2021/11/29 07:26:01;;;;;;;27.77;13.00;;;1.70;99.90;;;;;;5113887;23;20743;-77
2021/11/29 07:28:04;;;;;;;30.13;13.70;;;1.80;99.90;;;;;;5113257;23;20550;-77
2021/11/29 07:30:09;;;;;;;31.90;13.27;;;1.70;99.90;;;;;;5112717;23;20468;-77
2021/11/29 07:32:12;;;;;;;26.07;12.50;;;1.80;99.90;;;;;;5113232;23;20410;-77
2021/11/29 07:34:14;;;;;;;27.20;12.60;;;1.80;99.90;;;;;;5113099;23;20904;-75
2021/11/29 07:36:17;;;;;;;30.40;13.43;;;1.80;99.90;;;;;;5113022;23;20456;-75
2021/11/29 07:38:19;;;;;;;30.83;12.57;;;1.80;99.90;;;;;;5112842;23;20728;-75
2021/11/29 07:40:21;;;;;;;27.17;12.70;;;1.90;99.90;;;;;;5112851;23;20452;-78
2021/11/29 07:42:23;;;;;;;29.27;13.77;;;1.80;99.90;;;;;;5112854;23;20516;-78
2021/11/29 07:44:25;;;;;;;25.97;12.30;;;1.90;99.90;;;;;;5113810;23;20517;-75
2021/11/29 07:46:27;;;;;;;30.40;13.43;;;1.90;99.90;;;;;;5112853;23;20434;-77
2021/11/29 07:48:30;;;;;;;27.83;12.73;;;1.90;99.90;;;;;;5112971;23;20724;-79
2021/11/29 07:50:33;;;;;;;29.97;13.87;;;1.90;99.90;;;;;;5112651;23;20507;-79
2021/11/29 07:52:37;;;;;;;29.67;13.80;;;1.90;99.90;;;;;;5113234;23;20422;-75
2021/11/29 07:54:39;;;;;;;31.00;13.27;;;1.90;99.90;;;;;;5113394;23;20453;-80
2021/11/29 07:56:41;;;;;;;30.20;13.27;;;1.90;99.90;;;;;;5112893;23;20426;-80
2021/11/29 07:58:43;;;;;;;28.23;13.17;;;2.00;99.90;;;;;;5112372;23;20912;-73
2021/11/29 08:00:48;;;;;;;30.57;13.27;;;2.00;99.90;;;;;;5112366;23;20442;-77
2021/11/29 08:02:52;;;;;;;29.20;14.00;;;2.00;99.90;;;;;;5112375;23;20473;-80
2021/11/29 08:04:55;;;;;;;30.30;13.40;;;2.00;99.90;;;;;;5112844;23;20422;-75
2021/11/29 08:06:57;;;;;;;27.93;13.00;;;2.00;99.90;;;;;;5112964;23;20506;-80
2021/11/29 08:08:59;;;;;;;28.00;13.07;;;2.00;99.90;;;;;;5112537;23;20422;-82
2021/11/29 08:11:01;;;;;;;28.67;13.17;;;2.00;99.90;;;;;;5113178;23;20679;-78
2021/11/29 08:13:04;;;;;;;26.37;12.63;;;2.00;99.90;;;;;;5113053;23;20512;-74
2021/11/29 08:15:08;;;;;;;27.13;12.40;;;2.00;99.90;;;;;;5113257;23;20430;-77
2021/11/29 08:17:09;;;;;;;26.60;12.40;;;2.10;99.90;;;;;;5113419;23;20784;-77
2021/11/29 08:19:11;;;;;;;27.50;13.03;;;2.10;99.90;;;;;;5112062;23;20508;-80
2021/11/29 08:21:15;;;;;;;29.03;12.10;;;2.10;99.90;;;;;;5091268;23;20483;-82
2021/11/29 08:23:17;;;;;;;25.77;11.93;;;2.10;99.90;;;;;;5087147;23;20992;-81
2021/11/29 08:25:19;;;;;;;27.30;13.03;;;2.10;99.90;;;;;;5086758;23;20438;-80
2021/11/29 08:27:21;;;;;;;24.33;12.23;;;2.10;99.90;;;;;;5087404;23;20489;-81
2021/11/29 08:29:23;;;;;;;27.03;12.30;;;2.10;99.90;;;;;;5086812;23;20537;-80
2021/11/29 08:31:25;;;;;;;26.57;12.20;;;2.30;99.90;;;;;;5086649;23;20541;-81
2021/11/29 08:33:27;;;;;;;24.73;11.37;;;2.10;99.90;;;;;;5087085;23;20488;-80
2021/11/29 08:35:29;;;;;;;24.03;11.20;;;2.10;99.90;;;;;;5085345;23;20426;-80
2021/11/29 08:37:32;;;;;;;22.53;10.87;;;2.00;99.90;;;;;;5084928;23;20518;-80
2021/11/29 08:39:34;;;;;;;24.17;11.27;;;2.20;99.90;;;;;;5088159;23;20414;-81
2021/11/29 08:41:36;;;;;;;24.27;11.77;;;2.20;99.90;;;;;;5087548;23;20510;-81
2021/11/29 08:43:39;;;;;;;26.83;11.57;;;2.20;99.90;;;;;;5086844;23;20459;-81
2021/11/29 08:45:42;;;;;;;24.30;11.00;;;2.20;99.90;;;;;;5086379;23;20486;-81
2021/11/29 08:47:44;;;;;;;25.60;10.97;;;2.20;99.90;;;;;;5087461;23;20467;-80
2021/11/29 08:49:45;;;;;;;23.93;10.40;;;2.20;99.90;;;;;;5087454;23;20506;-80
2021/11/29 08:51:48;;;;;;;24.47;10.90;;;2.20;99.90;;;;;;5088199;23;20530;-81
2021/11/29 08:53:51;;;;;;;21.47;11.00;;;2.20;99.90;;;;;;5088397;23;20493;-80
2021/11/29 08:55:55;;;;;;;26.53;12.23;;;2.20;99.90;;;;;;5087900;23;20404;-80
2021/11/29 08:57:59;;;;;;;24.27;11.77;;;2.20;99.90;;;;;;5086308;23;20423;-81
2021/11/29 09:00:01;;;;;;;25.23;11.37;;;2.20;99.90;;;;;;5086372;23;20971;-80
2021/11/29 09:02:03;;;;;;;22.07;10.30;;;2.20;99.90;;;;;;5087909;23;20497;-80
2021/11/29 09:04:05;;;;;;;24.40;12.07;;;2.20;99.90;;;;;;5087638;23;20427;-82
2021/11/29 09:06:07;;;;;;;22.17;10.57;;;2.30;99.90;;;;;;5087091;23;20512;-81
2021/11/29 09:08:11;;;;;;;22.67;10.23;;;2.30;99.90;;;;;;5085931;23;20465;-81
2021/11/29 09:10:16;;;;;;;22.63;10.07;;;2.40;99.90;;;;;;5087620;23;20533;-81
2021/11/29 09:12:18;;;;;;;24.17;11.57;;;2.40;99.90;;;;;;5087450;23;20433;-80
2021/11/29 09:14:20;;;;;;;21.53;11.00;;;2.40;99.90;;;;;;5088921;23;20968;-82
2021/11/29 09:16:22;;;;;;;19.90;10.30;;;2.40;99.90;;;;;;5089337;23;20410;-80
2021/11/29 09:18:24;;;;;;;21.40;10.47;;;2.40;99.90;;;;;;5088407;23;20580;-80
2021/11/29 09:20:28;;;;;;;20.87;10.27;;;2.40;99.90;;;;;;5087674;23;20486;-80
2021/11/29 09:22:30;;;;;;;20.30;9.53;;;2.40;99.90;;;;;;5090868;23;20427;-81
2021/11/29 09:24:32;;;;;;;23.13;10.37;;;2.40;99.90;;;;;;5090157;23;20418;-81
2021/11/29 09:26:36;;;;;;;23.10;9.93;;;2.50;99.90;;;;;;5088170;23;20509;-83
2021/11/29 09:28:38;;;;;;;22.93;10.93;;;2.50;99.90;;;;;;5090910;23;20453;-82
2021/11/29 09:30:43;;;;;;;21.73;9.63;;;2.50;99.90;;;;;;5087189;23;20880;-79
2021/11/29 09:32:45;;;;;;;21.40;10.10;;;2.50;99.90;;;;;;5089086;23;20429;-80
2021/11/29 09:34:48;;;;;;;21.60;9.70;;;2.60;99.90;;;;;;5090764;23;20514;-80
2021/11/29 09:36:51;;;;;;;21.80;10.57;;;2.60;99.90;;;;;;5090049;23;20914;-80
2021/11/29 09:38:53;;;;;;;20.77;9.73;;;2.50;99.90;;;;;;5089369;23;20403;-79
2021/11/29 09:40:55;;;;;;;20.73;10.03;;;2.60;99.90;;;;;;5087173;23;20481;-80
2021/11/29 09:42:58;;;;;;;23.23;10.33;;;2.60;99.90;;;;;;5088340;23;20423;-80
2021/11/29 09:45:00;;;;;;;21.73;9.80;;;2.70;99.90;;;;;;5087016;23;20488;-80
2021/11/29 09:47:03;;;;;;;21.63;10.10;;;2.70;99.90;;;;;;5087735;23;20411;-80
2021/11/29 09:49:05;;;;;;;21.10;9.77;;;2.70;99.90;;;;;;5087579;23;20434;-80
2021/11/29 09:51:07;;;;;;;20.07;9.83;;;2.70;99.90;;;;;;5088324;23;20466;-81
2021/11/29 09:53:10;;;;;;;20.23;9.90;;;2.80;99.90;;;;;;5087341;23;20451;-81
2021/11/29 09:55:16;;;;;;;18.37;9.83;;;2.80;99.90;;;;;;5087560;23;20509;-83
2021/11/29 09:57:19;;;;;;;21.73;10.60;;;2.80;99.90;;;;;;5088400;23;20420;-80
2021/11/29 09:59:24;;;;;;;19.90;9.37;;;2.80;99.90;;;;;;5088319;23;20505;-82
2021/11/29 10:01:26;;;;;;;19.70;9.90;;;2.80;99.90;;;;;;5088069;23;20521;-80
2021/11/29 10:03:29;;;;;;;22.27;10.03;;;2.80;99.90;;;;;;5087435;23;20824;-80
2021/11/29 10:05:33;;;;;;;20.33;9.60;;;2.90;99.90;;;;;;5088162;23;20447;-79
2021/11/29 10:07:37;;;;;;;19.27;9.37;;;2.80;99.90;;;;;;5087764;23;20461;-80
2021/11/29 10:09:40;;;;;;;18.27;8.77;;;2.80;99.90;;;;;;5087935;23;20419;-80
2021/11/29 10:11:42;;;;;;;16.30;8.37;;;2.90;99.90;;;;;;5087698;23;20988;-80
2021/11/29 10:13:49;;;;;;;20.20;9.50;;;2.90;99.90;;;;;;5087658;23;20534;-80
2021/11/29 10:15:54;;;;;;;19.37;9.40;;;3.00;99.90;;;;;;5088301;23;20493;-82
2021/11/29 10:18:10;;;;;;;18.67;9.40;;;3.00;99.90;;;;;;5094415;23;20444;-81
2021/11/29 10:20:13;;;;;;;19.03;9.67;;;2.90;99.90;;;;;;5094803;23;20474;-80
2021/11/29 10:22:16;;;;;;;19.37;9.63;;;3.00;99.90;;;;;;5094670;23;20454;-80
2021/11/29 10:24:19;;;;;;;20.30;9.60;;;3.00;99.90;;;;;;5094700;23;20470;-80
2021/11/29 10:26:23;;;;;;;17.33;9.00;;;3.00;99.90;;;;;;5094753;23;20426;-81
2021/11/29 10:28:29;;;;;;;17.70;8.83;;;3.00;99.90;;;;;;5093331;23;20462;-82
2021/11/29 10:30:31;;;;;;;19.10;8.97;;;2.90;99.90;;;;;;5087845;23;21005;-81
2021/11/29 10:32:39;;;;;;;16.07;8.13;;;3.00;99.90;;;;;;5089414;23;20474;-81